Time;durP1;ratioP1;P1;durP2;ratioP2;P2;SDS_P1;SDS_P2;PMS_P1;PMS_P2;Temp;Humidity;BMP_temperature;BMP_pressure;BME280_temperature;BME280_humidity;BME280_pressure;Samples;Min_cycle;Max_cycle;Signal;HPM_P1;HPM_P2
2021/01/09 00:00:54;;;;;;;6.87;6.00;;;;;;;1.24;97.30;102163.84;6300683;28;20195;-80
2021/01/09 00:04:17;;;;;;;7.30;5.33;;;;;;;1.23;97.32;102167.50;6309399;28;20220;-79
2021/01/09 00:07:41;;;;;;;6.60;5.77;;;;;;;1.22;96.93;102176.56;6297865;28;20207;-80
2021/01/09 00:11:05;;;;;;;7.80;5.60;;;;;;;1.10;97.47;102166.81;6293874;28;20353;-79
2021/01/09 00:14:28;;;;;;;8.83;5.60;;;;;;;1.12;97.28;102162.16;6300107;28;20207;-80
2021/01/09 00:17:51;;;;;;;8.13;6.03;;;;;;;1.26;96.57;102167.25;6297905;28;20381;-79
2021/01/09 00:21:14;;;;;;;6.37;5.70;;;;;;;1.24;97.41;102179.97;6296495;28;20213;-82
2021/01/09 00:24:39;;;;;;;6.93;5.60;;;;;;;1.30;97.17;102167.00;6298470;28;20231;-80
2021/01/09 00:28:02;;;;;;;8.33;5.57;;;;;;;1.27;97.18;102174.34;6309089;28;20331;-80
2021/01/09 00:31:25;;;;;;;5.40;4.90;;;;;;;1.14;96.65;102152.13;6321073;28;20238;-80
2021/01/09 00:34:48;;;;;;;6.00;5.50;;;;;;;1.34;96.79;102179.22;6311793;28;20283;-80
2021/01/09 00:38:12;;;;;;;5.30;4.80;;;;;;;1.30;97.24;102183.16;6291116;28;20229;-79
2021/01/09 00:41:36;;;;;;;5.00;4.60;;;;;;;1.35;96.79;102170.19;6318841;28;20560;-81
2021/01/09 00:44:58;;;;;;;11.23;7.93;;;;;;;1.28;97.63;102181.44;6317220;28;20294;-78
2021/01/09 00:48:21;;;;;;;7.47;6.03;;;;;;;1.24;97.59;102171.91;6324821;28;20259;-80
2021/01/09 00:51:45;;;;;;;5.93;5.33;;;;;;;1.31;97.42;102179.50;6314425;28;20221;-80
2021/01/09 00:55:03;;;;;;;7.57;5.50;;;;;;;1.36;96.89;102172.75;6320326;28;20671;-80
2021/01/09 00:58:27;;;;;;;5.90;4.83;;;;;;;1.32;97.00;102186.56;6316317;28;20308;-80
2021/01/09 01:01:51;;;;;;;5.23;4.63;;;;;;;0.97;97.54;102158.03;6323024;28;20203;-80
2021/01/09 01:05:14;;;;;;;6.90;4.90;;;;;;;1.13;97.73;102198.78;6317771;28;20234;-81
2021/01/09 01:08:37;;;;;;;6.00;5.30;;;;;;;1.20;98.05;102183.91;6324831;28;20203;-81
2021/01/09 01:12:03;;;;;;;5.77;5.27;;;;;;;1.24;97.51;102195.25;6333365;28;20214;-79
2021/01/09 01:15:26;;;;;;;7.57;4.80;;;;;;;1.24;97.12;102196.13;6324515;28;20210;-80
2021/01/09 01:18:50;;;;;;;4.70;4.47;;;;;;;1.21;96.96;102196.34;6322808;28;20251;-79
2021/01/09 01:22:13;;;;;;;5.43;4.87;;;;;;;1.28;96.23;102197.56;6323838;28;20209;-79
2021/01/09 01:25:36;;;;;;;5.07;4.67;;;;;;;1.28;96.80;102202.94;6314302;28;20233;-81
2021/01/09 01:29:00;;;;;;;5.53;4.90;;;;;;;1.24;96.95;102184.50;6321201;28;20238;-79
2021/01/09 01:32:24;;;;;;;5.90;5.20;;;;;;;1.39;96.84;102188.63;6320264;28;20307;-78
2021/01/09 01:35:44;;;;;;;5.50;5.13;;;;;;;1.44;95.63;102199.03;6324501;28;20376;-80
2021/01/09 01:39:07;;;;;;;5.37;4.93;;;;;;;1.33;96.42;102201.72;6334783;28;20194;-80
2021/01/09 01:42:30;;;;;;;6.57;5.67;;;;;;;1.34;97.18;102211.47;6326210;28;20210;-79
2021/01/09 01:45:54;;;;;;;5.30;4.90;;;;;;;1.22;96.71;102203.44;6323426;28;20276;-80
2021/01/09 01:49:18;;;;;;;4.80;4.40;;;;;;;1.24;96.63;102197.94;6311345;28;20295;-80
2021/01/09 01:52:41;;;;;;;5.10;4.70;;;;;;;1.26;96.50;102199.53;6319971;28;20364;-81
2021/01/09 01:55:49;;;;;;;5.10;4.77;;;;;;;1.17;96.70;102199.41;6321556;28;20275;-79
2021/01/09 01:58:54;;;;;;;4.83;4.43;;;;;;;1.25;97.03;102208.59;6319481;28;20202;-80
2021/01/09 02:02:08;;;;;;;4.93;4.63;;;;;;;1.17;96.45;102194.91;6316977;28;20206;-80
2021/01/09 02:05:25;;;;;;;4.37;4.07;;;;;;;1.16;97.01;102203.94;6319105;28;20206;-80
2021/01/09 02:08:53;;;;;;;5.40;4.50;;;;;;;1.11;97.79;102199.91;6324610;28;20198;-79
2021/01/09 02:12:24;;;;;;;4.70;4.20;;;;;;;0.96;98.85;102175.13;6316091;28;20268;-81
2021/01/09 02:15:43;;;;;;;9.23;5.40;;;;;;;1.12;98.03;102201.63;6332028;28;20355;-78
2021/01/09 02:19:08;;;;;;;5.10;4.70;;;;;;;0.94;97.75;102166.31;6313584;28;20300;-80
2021/01/09 02:22:20;;;;;;;4.73;4.33;;;;;;;1.10;97.70;102203.59;6323787;28;20555;-78
2021/01/09 02:25:41;;;;;;;7.10;5.00;;;;;;;1.12;97.69;102202.50;6328050;28;20445;-78
2021/01/09 02:29:02;;;;;;;5.13;4.67;;;;;;;0.74;98.20;102147.41;6303943;28;20638;-78
2021/01/09 02:32:18;;;;;;;5.77;5.27;;;;;;;1.18;98.15;102206.53;6303733;28;20194;-81
2021/01/09 02:35:44;;;;;;;5.10;4.80;;;;;;;0.98;97.85;102154.34;6309782;28;20372;-79
2021/01/09 02:39:08;;;;;;;5.10;4.70;;;;;;;1.11;97.06;102195.38;6298212;28;20228;-80
2021/01/09 02:42:33;;;;;;;6.57;4.90;;;;;;;1.13;96.76;102214.94;6302794;28;20203;-79
2021/01/09 02:45:41;;;;;;;5.93;5.43;;;;;;;1.21;96.61;102201.72;6300824;28;20686;-80
2021/01/09 02:48:55;;;;;;;5.47;5.00;;;;;;;1.30;96.00;102200.16;6300216;28;20225;-78
2021/01/09 02:52:01;;;;;;;8.97;5.47;;;;;;;1.14;96.39;102197.84;6306135;28;20206;-81
2021/01/09 02:55:22;;;;;;;5.77;4.57;;;;;;;1.06;96.27;102181.47;6302366;28;20246;-79
2021/01/09 02:58:46;;;;;;;8.17;5.70;;;;;;;1.18;97.01;102201.97;6292183;28;20254;-79
2021/01/09 03:01:49;;;;;;;6.80;6.10;;;;;;;1.20;95.89;102208.09;6299873;28;20581;-78
2021/01/09 03:04:53;;;;;;;6.50;5.30;;;;;;;1.30;95.12;102205.53;6302748;28;20209;-79
2021/01/09 03:07:57;;;;;;;4.80;4.60;;;;;;;1.22;95.21;102200.75;6291734;28;20188;-78
2021/01/09 03:11:00;;;;;;;5.40;4.90;;;;;;;1.21;95.71;102207.09;6297493;28;20251;-79
2021/01/09 03:14:05;;;;;;;7.40;5.33;;;;;;;1.19;95.74;102213.59;6292377;28;20199;-78
2021/01/09 03:17:11;;;;;;;5.33;4.80;;;;;;;1.14;95.78;102205.91;6297969;28;20195;-79
2021/01/09 03:20:16;;;;;;;6.07;5.37;;;;;;;1.11;96.23;102200.75;6304995;28;20187;-79
2021/01/09 03:23:27;;;;;;;9.17;5.03;;;;;;;1.01;95.33;102180.13;6301889;28;20211;-79
2021/01/09 03:26:31;;;;;;;5.83;4.77;;;;;;;0.97;96.12;102168.78;6291867;28;20242;-79
2021/01/09 03:29:35;;;;;;;5.10;4.60;;;;;;;0.92;95.83;102179.03;6320068;28;20345;-78
2021/01/09 03:32:38;;;;;;;6.63;4.90;;;;;;;1.06;96.12;102208.34;6326082;28;20560;-79
2021/01/09 03:35:42;;;;;;;5.80;5.00;;;;;;;1.02;95.88;102209.56;6312309;28;20306;-78
2021/01/09 03:38:46;;;;;;;5.90;4.40;;;;;;;1.10;95.61;102219.72;6315041;28;20654;-79
2021/01/09 03:41:50;;;;;;;5.00;4.60;;;;;;;1.09;95.70;102212.63;6320083;28;20720;-79
2021/01/09 03:44:54;;;;;;;5.47;4.97;;;;;;;0.95;95.55;102200.28;6304735;28;20215;-79
2021/01/09 03:47:57;;;;;;;4.90;4.50;;;;;;;1.05;95.14;102206.63;6298918;28;20231;-79
2021/01/09 03:51:00;;;;;;;4.87;4.47;;;;;;;1.08;94.81;102206.38;6318044;28;20228;-80
2021/01/09 03:54:07;;;;;;;6.63;5.23;;;;;;;1.13;95.16;102214.94;6324929;28;20209;-80
2021/01/09 03:57:13;;;;;;;5.10;4.70;;;;;;;1.10;94.71;102220.56;6314223;28;20243;-79
2021/01/09 04:00:22;;;;;;;5.17;4.77;;;;;;;1.11;94.74;102222.28;6313212;28;20217;-80
2021/01/09 04:03:38;;;;;;;5.07;4.73;;;;;;;1.06;94.66;102218.22;6316077;28;20283;-79
2021/01/09 04:06:42;;;;;;;5.17;4.70;;;;;;;0.94;95.08;102209.31;6319086;28;20244;-79
2021/01/09 04:09:45;;;;;;;4.47;4.17;;;;;;;1.01;94.48;102223.97;6328819;28;20199;-79
2021/01/09 04:12:49;;;;;;;7.10;4.77;;;;;;;0.97;95.44;102230.59;6320650;28;20604;-79
2021/01/09 04:15:53;;;;;;;5.37;4.70;;;;;;;1.05;94.32;102233.50;6320672;28;20206;-80
2021/01/09 04:18:56;;;;;;;5.03;4.63;;;;;;;1.08;94.21;102221.66;6317590;28;20205;-80
2021/01/09 04:21:59;;;;;;;6.83;4.37;;;;;;;1.09;93.90;102229.59;6311001;28;20210;-81
2021/01/09 04:25:04;;;;;;;5.03;4.60;;;;;;;1.06;93.93;102221.78;6300953;28;20219;-79
2021/01/09 04:28:08;;;;;;;4.83;4.43;;;;;;;1.10;94.00;102225.94;6328471;28;20222;-78
2021/01/09 04:31:15;;;;;;;6.57;4.67;;;;;;;1.08;93.87;102235.94;6322315;28;20925;-79
2021/01/09 04:34:20;;;;;;;4.93;4.63;;;;;;;1.06;94.45;102240.59;6314615;28;20316;-80
2021/01/09 04:37:27;;;;;;;5.13;4.77;;;;;;;1.16;93.80;102236.19;6317297;28;20193;-79
2021/01/09 04:40:31;;;;;;;4.53;4.13;;;;;;;0.98;93.80;102216.16;6320652;28;20842;-79
2021/01/09 04:43:37;;;;;;;4.80;4.33;;;;;;;1.12;93.51;102245.50;6308241;28;20668;-79
2021/01/09 04:46:48;;;;;;;4.70;4.30;;;;;;;1.12;92.98;102256.25;6319099;28;20208;-80
2021/01/09 04:49:52;;;;;;;5.47;4.70;;;;;;;1.19;92.97;102256.59;6307911;28;20206;-78
2021/01/09 04:52:56;;;;;;;4.57;4.17;;;;;;;1.09;92.87;102255.63;6314178;28;20191;-80
2021/01/09 04:56:01;;;;;;;5.73;4.57;;;;;;;1.08;93.55;102252.06;6318408;28;20263;-79
2021/01/09 04:59:12;;;;;;;4.57;4.27;;;;;;;1.12;92.52;102250.88;6312224;28;20207;-79
2021/01/09 05:02:18;;;;;;;6.10;4.23;;;;;;;1.12;92.54;102256.25;6307848;28;20202;-79
2021/01/09 05:05:22;;;;;;;4.60;4.30;;;;;;;1.08;93.22;102257.44;6318112;28;20209;-79
2021/01/09 05:08:30;;;;;;;4.27;3.87;;;;;;;1.04;92.73;102264.06;6311484;28;20268;-79
2021/01/09 05:11:35;;;;;;;4.40;4.13;;;;;;;1.05;92.46;102259.53;6309122;28;20199;-80
2021/01/09 05:14:39;;;;;;;4.80;4.40;;;;;;;1.09;92.58;102272.63;6314963;28;20197;-78
2021/01/09 05:17:44;;;;;;;6.03;4.63;;;;;;;1.12;93.21;102268.81;6316570;28;20565;-79
2021/01/09 05:20:47;;;;;;;4.70;4.30;;;;;;;1.08;92.70;102244.00;6312738;28;20186;-79
2021/01/09 05:23:54;;;;;;;4.90;4.53;;;;;;;0.97;92.21;102227.91;6325544;28;20194;-79
2021/01/09 05:26:58;;;;;;;5.10;4.70;;;;;;;1.15;92.68;102265.91;6317232;28;20218;-78
2021/01/09 05:30:05;;;;;;;5.07;4.50;;;;;;;1.16;92.27;102267.59;6317882;28;20312;-79
2021/01/09 05:33:15;;;;;;;4.33;3.97;;;;;;;0.94;92.49;102246.94;6327033;28;20186;-81
2021/01/09 05:36:19;;;;;;;4.50;4.10;;;;;;;0.88;92.37;102236.66;6331815;28;20211;-79
2021/01/09 05:39:25;;;;;;;4.47;4.17;;;;;;;1.17;92.02;102264.81;6316283;28;20307;-79
2021/01/09 05:42:29;;;;;;;4.27;3.93;;;;;;;1.19;91.99;102278.97;6312728;28;20201;-79
2021/01/09 05:45:33;;;;;;;4.80;4.50;;;;;;;1.03;92.46;102267.72;6314648;28;20213;-79
2021/01/09 05:48:45;;;;;;;4.50;4.20;;;;;;;1.09;91.50;102278.00;6309247;28;20205;-79
2021/01/09 05:51:56;;;;;;;4.47;4.17;;;;;;;1.00;91.70;102262.56;6316377;28;20215;-79
2021/01/09 05:55:00;;;;;;;5.37;4.37;;;;;;;1.02;92.04;102268.72;6310669;28;20273;-78
2021/01/09 05:58:07;;;;;;;4.17;3.77;;;;;;;1.05;92.01;102265.75;6317725;28;20196;-79
2021/01/09 06:01:12;;;;;;;5.17;4.13;;;;;;;0.99;91.81;102255.50;6317162;28;20227;-80
2021/01/09 06:04:20;;;;;;;4.20;3.83;;;;;;;1.19;91.31;102283.50;6332250;28;20193;-79
2021/01/09 06:07:27;;;;;;;4.70;4.40;;;;;;;1.11;91.86;102281.41;6327458;28;20287;-80
2021/01/09 06:10:37;;;;;;;4.40;4.10;;;;;;;1.13;91.41;102279.44;6325701;28;20194;-79
2021/01/09 06:13:44;;;;;;;4.73;4.10;;;;;;;1.09;90.57;102275.31;6321902;28;20197;-79
2021/01/09 06:16:47;;;;;;;4.50;4.10;;;;;;;0.94;90.80;102241.56;6325048;28;20198;-79
2021/01/09 06:19:53;;;;;;;4.67;4.20;;;;;;;1.06;90.76;102272.84;6325450;28;20201;-80
2021/01/09 06:22:58;;;;;;;4.83;4.37;;;;;;;1.15;90.06;102282.03;6329142;28;20201;-80
2021/01/09 06:26:03;;;;;;;4.13;3.83;;;;;;;1.09;90.23;102288.75;6334056;28;20305;-80
2021/01/09 06:29:19;;;;;;;5.13;4.73;;;;;;;0.93;90.95;102277.47;6331385;28;20253;-79
2021/01/09 06:32:30;;;;;;;4.87;4.00;;;;;;;0.90;90.78;102266.97;6319847;28;20577;-79
2021/01/09 06:35:35;;;;;;;3.80;3.60;;;;;;;1.06;90.18;102312.31;6320951;28;20193;-79
2021/01/09 06:38:41;;;;;;;4.30;4.07;;;;;;;0.88;90.20;102257.31;6332173;28;20274;-79
2021/01/09 06:41:47;;;;;;;3.80;3.60;;;;;;;1.07;90.72;102301.47;6335520;28;20195;-79
2021/01/09 06:44:53;;;;;;;4.43;4.03;;;;;;;1.16;89.78;102308.78;6345881;28;20175;-80
2021/01/09 06:47:58;;;;;;;3.53;3.40;;;;;;;0.90;89.13;102258.06;6331776;28;20201;-79
2021/01/09 06:51:23;;;;;;;4.63;4.30;;;;;;;1.05;90.10;102303.38;6324661;28;20210;-79
2021/01/09 06:54:29;;;;;;;4.43;4.20;;;;;;;1.15;89.61;102303.53;6320025;28;20212;-79
2021/01/09 06:57:36;;;;;;;4.57;4.20;;;;;;;1.17;89.55;102313.19;6319799;28;20224;-79
2021/01/09 07:00:39;;;;;;;4.47;4.17;;;;;;;1.10;90.22;102317.34;6316601;28;20209;-80
2021/01/09 07:03:49;;;;;;;4.63;4.27;;;;;;;1.24;89.95;102327.84;6320327;28;20192;-79
2021/01/09 07:07:00;;;;;;;4.80;4.40;;;;;;;1.22;90.04;102321.75;6310353;28;20214;-80
2021/01/09 07:10:23;;;;;;;5.13;4.73;;;;;;;1.16;90.49;102316.84;6322148;28;20186;-79
2021/01/09 07:13:32;;;;;;;3.97;3.73;;;;;;;1.16;90.58;102321.38;6320758;28;20244;-79
2021/01/09 07:16:39;;;;;;;5.30;4.90;;;;;;;1.27;90.94;102319.56;6321717;28;20293;-79
2021/01/09 07:19:43;;;;;;;5.87;5.07;;;;;;;1.35;89.95;102323.47;6311389;28;20281;-79
2021/01/09 07:22:51;;;;;;;4.40;4.10;;;;;;;1.28;89.51;102326.63;6322422;28;20212;-80
2021/01/09 07:25:56;;;;;;;5.13;4.67;;;;;;;1.27;89.52;102330.31;6315434;28;20221;-79
2021/01/09 07:29:04;;;;;;;4.17;3.87;;;;;;;1.22;89.62;102321.75;6301295;28;20234;-79
2021/01/09 07:32:08;;;;;;;4.27;3.87;;;;;;;1.03;89.32;102332.22;6292597;28;20676;-79
2021/01/09 07:35:18;;;;;;;5.00;4.60;;;;;;;1.01;90.37;102317.19;6294786;28;20351;-80
2021/01/09 07:38:29;;;;;;;4.63;4.27;;;;;;;1.05;89.30;102335.63;6292550;28;20548;-79
2021/01/09 07:41:34;;;;;;;5.07;4.67;;;;;;;0.96;89.79;102325.63;6284513;28;20525;-79
2021/01/09 07:44:37;;;;;;;6.17;4.70;;;;;;;1.00;90.11;102327.06;6293905;28;20447;-80
2021/01/09 07:47:44;;;;;;;4.53;4.20;;;;;;;0.94;89.40;102324.88;6316585;28;20281;-81
2021/01/09 07:50:47;;;;;;;4.33;4.03;;;;;;;0.98;90.22;102329.03;6303775;28;20230;-80
2021/01/09 07:53:51;;;;;;;4.07;3.87;;;;;;;0.90;89.82;102312.66;6294099;28;20393;-79
2021/01/09 07:56:56;;;;;;;4.87;4.40;;;;;;;0.90;90.10;102322.56;6313375;28;20294;-80
2021/01/09 08:00:01;;;;;;;4.87;4.50;;;;;;;0.80;89.80;102319.72;6304227;28;20252;-80
2021/01/09 08:03:16;;;;;;;6.30;4.73;;;;;;;0.85;89.76;102320.22;6307464;28;20227;-79
2021/01/09 08:06:19;;;;;;;4.60;4.20;;;;;;;0.95;90.05;102323.88;6312571;28;20233;-81
2021/01/09 08:09:28;;;;;;;4.30;4.10;;;;;;;0.98;89.90;102323.66;6299096;28;20198;-80
2021/01/09 08:12:37;;;;;;;7.73;4.97;;;;;;;0.90;89.71;102293.84;6284889;28;20724;-79
2021/01/09 08:15:42;;;;;;;5.60;4.90;;;;;;;0.98;89.70;102318.28;6281883;28;20289;-80
2021/01/09 08:18:45;;;;;;;8.13;5.00;;;;;;;1.01;89.96;102326.13;6294352;28;20262;-79
2021/01/09 08:21:52;;;;;;;5.03;4.47;;;;;;;1.13;89.49;102321.63;6290463;28;20198;-79
2021/01/09 08:25:11;;;;;;;4.70;4.33;;;;;;;1.14;88.43;102324.19;6296696;28;20197;-81
2021/01/09 08:28:18;;;;;;;4.80;4.50;;;;;;;1.00;89.84;102332.44;6295954;28;20765;-77
2021/01/09 08:31:22;;;;;;;5.60;4.37;;;;;;;0.98;89.00;102329.03;6307723;28;20209;-81
2021/01/09 08:34:28;;;;;;;4.63;4.23;;;;;;;0.97;89.77;102338.09;6311184;28;20717;-80
2021/01/09 08:37:31;;;;;;;4.70;4.30;;;;;;;1.06;88.81;102337.38;6304805;28;20219;-77
2021/01/09 08:40:36;;;;;;;4.50;4.20;;;;;;;0.95;88.77;102323.88;6317856;28;20216;-79
2021/01/09 08:43:39;;;;;;;4.47;3.87;;;;;;;1.04;88.03;102339.31;6316454;28;20328;-79
2021/01/09 08:46:45;;;;;;;4.87;4.57;;;;;;;0.97;88.29;102343.47;6323595;28;20220;-79
2021/01/09 08:49:49;;;;;;;5.57;5.03;;;;;;;1.05;88.17;102338.31;6318780;28;20311;-79
2021/01/09 08:52:53;;;;;;;4.90;4.50;;;;;;;1.00;88.55;102335.13;6332256;28;20198;-80
2021/01/09 08:56:01;;;;;;;5.40;4.20;;;;;;;1.01;88.24;102331.50;6325037;28;20201;-84
2021/01/09 08:59:10;;;;;;;4.57;4.17;;;;;;;0.96;88.61;102320.25;6332030;28;20191;-83
2021/01/09 09:02:20;;;;;;;4.37;4.07;;;;;;;0.93;88.56;102315.09;6320584;28;20281;-77
2021/01/09 09:05:27;;;;;;;5.03;4.10;;;;;;;1.00;88.35;102327.06;6310669;28;20204;-80
2021/01/09 09:08:33;;;;;;;6.03;4.57;;;;;;;0.96;88.63;102317.56;6321932;28;20200;-79
2021/01/09 09:11:40;;;;;;;7.70;4.10;;;;;;;1.01;88.59;102334.19;6315783;28;20217;-82
2021/01/09 09:14:55;;;;;;;4.27;3.83;;;;;;;1.13;87.72;102330.53;6326311;28;20191;-82
2021/01/09 09:17:58;;;;;;;5.03;4.43;;;;;;;1.10;87.62;102332.63;6319282;28;20207;-81
2021/01/09 09:21:01;;;;;;;4.30;3.90;;;;;;;1.03;87.71;102332.22;6321237;28;20267;-79
2021/01/09 09:24:08;;;;;;;4.77;4.37;;;;;;;1.09;87.80;102321.00;6335158;28;20202;-81
2021/01/09 09:27:22;;;;;;;4.87;4.47;;;;;;;1.11;87.17;102323.56;6336656;28;20214;-80
2021/01/09 09:30:27;;;;;;;3.70;3.60;;;;;;;1.07;87.68;102320.28;6291090;28;20199;-81
2021/01/09 09:33:35;;;;;;;4.63;4.33;;;;;;;1.03;86.93;102310.72;6291685;28;20241;-81
2021/01/09 09:36:41;;;;;;;3.87;3.67;;;;;;;0.97;87.33;102318.41;6295897;28;20670;-81
2021/01/09 09:39:45;;;;;;;4.73;4.33;;;;;;;1.06;87.44;102323.91;6302694;28;20191;-80
2021/01/09 09:42:49;;;;;;;9.37;4.27;;;;;;;1.07;87.16;102331.03;6291354;28;20211;-80
2021/01/09 09:45:56;;;;;;;4.80;4.40;;;;;;;1.02;87.33;102319.78;6293480;28;20209;-78
2021/01/09 09:49:00;;;;;;;4.60;4.20;;;;;;;1.26;86.91;102333.97;6300928;28;20198;-80
2021/01/09 09:52:15;;;;;;;4.83;4.33;;;;;;;1.35;86.03;102331.53;6294956;28;20226;-78
2021/01/09 09:58:45;;;;;;;4.07;3.70;;;;;;;1.14;86.03;102329.56;6304216;28;20187;-79
2021/01/09 10:01:57;;;;;;;4.20;3.90;;;;;;;1.20;85.66;102334.47;6296054;28;20642;-80
2021/01/09 10:05:11;;;;;;;5.03;4.10;;;;;;;1.22;85.62;102329.81;6298536;28;20206;-80
2021/01/09 10:08:22;;;;;;;7.93;4.57;;;;;;;1.18;85.98;102331.03;6295448;28;20212;-80
2021/01/09 10:11:29;;;;;;;4.57;3.97;;;;;;;1.23;85.94;102328.81;6294428;28;20323;-80
2021/01/09 10:14:55;;;;;;;7.73;4.30;;;;;;;1.01;86.51;102285.81;6287810;28;20548;-81
2021/01/09 10:18:00;;;;;;;5.17;4.20;;;;;;;1.27;84.85;102303.44;6292370;28;20787;-77
2021/01/09 10:21:04;;;;;;;4.53;4.20;;;;;;;1.32;83.82;102326.38;6281585;28;20279;-80
2021/01/09 10:24:11;;;;;;;4.57;4.17;;;;;;;1.45;84.63;102327.13;6289605;28;20195;-78
2021/01/09 10:27:14;;;;;;;4.23;3.93;;;;;;;1.37;84.72;102324.19;6296093;28;20299;-80
2021/01/09 10:30:19;;;;;;;6.77;4.30;;;;;;;1.40;85.36;102313.19;6314445;28;20194;-78
2021/01/09 10:33:31;;;;;;;6.93;4.93;;;;;;;1.50;84.17;102322.25;6315452;28;20191;-79
2021/01/09 10:36:36;;;;;;;5.40;4.50;;;;;;;1.48;84.28;102316.13;6315898;28;20621;-78
2021/01/09 10:39:40;;;;;;;4.47;3.87;;;;;;;1.46;84.13;102318.09;6321123;28;20233;-79
2021/01/09 10:42:44;;;;;;;4.93;4.50;;;;;;;1.30;84.78;102285.31;6311701;28;20207;-82
2021/01/09 10:45:49;;;;;;;6.67;4.50;;;;;;;1.37;84.71;102318.81;6313674;28;20336;-80
2021/01/09 10:48:57;;;;;;;5.17;4.73;;;;;;;1.42;84.35;102322.00;6315591;28;20760;-79
2021/01/09 10:52:01;;;;;;;4.97;4.67;;;;;;;1.41;84.02;102314.91;6322329;28;20214;-80
2021/01/09 10:55:05;;;;;;;8.60;5.07;;;;;;;1.48;84.48;102317.00;6315419;28;20584;-79
2021/01/09 10:58:14;;;;;;;5.83;5.23;;;;;;;1.49;84.06;102313.31;6316607;28;20214;-83
2021/01/09 11:01:21;;;;;;;5.93;4.97;;;;;;;1.33;84.02;102291.31;6318590;28;20202;-81
2021/01/09 11:04:25;;;;;;;5.03;4.60;;;;;;;1.48;84.08;102316.13;6336257;28;20182;-81
2021/01/09 11:07:31;;;;;;;5.20;4.80;;;;;;;1.43;84.19;102312.97;6327918;28;20210;-81
2021/01/09 11:10:34;;;;;;;4.43;4.13;;;;;;;1.42;84.74;102305.84;6327484;28;20746;-79
2021/01/09 11:13:41;;;;;;;5.60;5.10;;;;;;;1.34;84.88;102310.97;6325980;28;20203;-79
2021/01/09 11:16:45;;;;;;;5.37;4.90;;;;;;;1.27;86.56;102308.81;6321810;28;20728;-79
2021/01/09 11:19:49;;;;;;;5.50;5.00;;;;;;;1.31;85.53;102308.56;6320143;28;21100;-80
2021/01/09 11:22:52;;;;;;;5.60;5.03;;;;;;;1.22;85.64;102311.00;6312042;28;20226;-77
2021/01/09 11:25:58;;;;;;;5.60;5.10;;;;;;;1.33;84.82;102317.34;6313777;28;20279;-79
2021/01/09 11:29:01;;;;;;;4.80;4.40;;;;;;;1.26;85.64;102307.06;6321568;28;20234;-80
2021/01/09 11:32:07;;;;;;;6.27;4.60;;;;;;;1.32;84.72;102307.56;6326019;28;20286;-80
2021/01/09 11:35:18;;;;;;;9.10;5.13;;;;;;;1.17;86.22;102307.81;6324224;28;20205;-79
2021/01/09 11:38:23;;;;;;;5.67;5.13;;;;;;;1.33;85.22;102301.22;6324201;28;20192;-79
2021/01/09 11:41:27;;;;;;;5.50;5.00;;;;;;;1.44;84.47;102309.31;6322610;28;20194;-79
2021/01/09 11:44:31;;;;;;;4.70;4.40;;;;;;;1.39;83.88;102295.38;6328628;28;20241;-80
2021/01/09 11:47:36;;;;;;;4.80;4.33;;;;;;;1.45;84.00;102300.22;6301551;28;20675;-80
2021/01/09 11:50:43;;;;;;;5.20;4.70;;;;;;;1.56;83.59;102298.41;6318056;28;20574;-81
2021/01/09 11:53:55;;;;;;;4.53;4.23;;;;;;;1.57;83.03;102294.72;6320906;28;20268;-79
2021/01/09 11:57:00;;;;;;;5.77;4.27;;;;;;;1.55;82.00;102295.81;6317879;28;20187;-79
2021/01/09 12:00:08;;;;;;;6.83;5.10;;;;;;;1.65;82.36;102300.34;6323433;28;20183;-80
2021/01/09 12:03:27;;;;;;;5.00;4.57;;;;;;;1.42;82.04;102273.56;6319181;28;20257;-79
2021/01/09 12:06:30;;;;;;;6.53;5.23;;;;;;;1.48;82.74;102294.63;6332797;28;20183;-79
2021/01/09 12:09:33;;;;;;;6.17;4.90;;;;;;;1.52;82.75;102296.06;6316943;28;20211;-82
2021/01/09 12:12:37;;;;;;;5.63;5.13;;;;;;;1.26;83.76;102272.13;6331443;28;20191;-81
2021/01/09 12:15:41;;;;;;;7.20;5.13;;;;;;;1.38;83.61;102290.97;6330133;28;20211;-79
2021/01/09 12:18:44;;;;;;;8.17;4.53;;;;;;;1.47;82.72;102299.13;6320489;28;20194;-80
2021/01/09 12:21:51;;;;;;;5.70;5.17;;;;;;;1.57;82.64;102277.72;6322169;28;20205;-83
2021/01/09 12:24:57;;;;;;;6.17;5.00;;;;;;;1.42;82.49;102278.97;6317896;28;20199;-79
2021/01/09 12:31:45;;;;;;;5.77;5.20;;;;;;;1.26;82.42;102280.19;6238653;23;20244;-80
2021/01/09 12:34:52;;;;;;;6.77;5.47;;;;;;;1.39;82.56;102295.38;6131740;29;20205;-79
2021/01/09 12:37:56;;;;;;;7.93;5.40;;;;;;;1.31;83.57;102281.69;6128948;29;20298;-78
2021/01/09 12:40:59;;;;;;;6.17;5.57;;;;;;;1.36;82.52;102279.47;6129364;29;20233;-78
2021/01/09 12:44:05;;;;;;;5.63;5.13;;;;;;;1.32;82.06;102288.75;6120667;29;20202;-78
2021/01/09 12:47:11;;;;;;;7.23;4.57;;;;;;;1.23;82.18;102280.44;6125716;29;20300;-78
2021/01/09 12:50:18;;;;;;;4.93;4.53;;;;;;;1.18;81.70;102288.00;6136540;29;20199;-81
2021/01/09 12:53:25;;;;;;;5.37;4.97;;;;;;;1.30;82.69;102279.94;6130231;29;20213;-80
2021/01/09 12:56:30;;;;;;;6.10;5.27;;;;;;;1.41;81.78;102282.66;6120346;29;20203;-79
2021/01/09 12:59:34;;;;;;;6.60;4.60;;;;;;;1.38;81.75;102277.50;6123356;29;20227;-80
2021/01/09 13:02:38;;;;;;;5.27;4.63;;;;;;;1.34;82.29;102286.78;6130780;29;20207;-79
2021/01/09 13:05:43;;;;;;;5.77;5.27;;;;;;;1.22;82.57;102292.19;6108597;29;20209;-81
2021/01/09 13:08:51;;;;;;;7.40;5.73;;;;;;;1.12;83.19;102267.00;6110453;29;20231;-80
2021/01/09 13:11:56;;;;;;;5.40;4.90;;;;;;;1.27;82.72;102287.28;6109040;29;20211;-80
2021/01/09 13:14:59;;;;;;;6.20;5.50;;;;;;;1.25;83.72;102293.78;6120427;29;20287;-80
2021/01/09 13:18:04;;;;;;;5.23;4.83;;;;;;;1.30;83.43;102290.72;6126023;29;20245;-79
2021/01/09 13:21:13;;;;;;;6.07;5.57;;;;;;;1.37;83.64;102302.69;6129092;29;20231;-80
2021/01/09 13:24:17;;;;;;;5.70;5.20;;;;;;;1.13;83.22;102271.38;6122262;29;20223;-78
2021/01/09 13:27:21;;;;;;;6.07;5.30;;;;;;;1.16;83.64;102273.84;6120699;29;20273;-79
2021/01/09 13:30:26;;;;;;;5.87;4.87;;;;;;;1.09;83.57;102266.38;6118593;28;20264;-78
2021/01/09 13:33:39;;;;;;;5.90;5.30;;;;;;;1.25;83.73;102283.88;6112392;29;20199;-79
2021/01/09 13:36:45;;;;;;;5.67;5.07;;;;;;;1.36;83.55;102284.84;6096371;29;20293;-79
2021/01/09 13:39:49;;;;;;;6.83;5.67;;;;;;;1.30;83.55;102286.19;6115048;29;20194;-79
2021/01/09 13:42:52;;;;;;;5.50;5.00;;;;;;;1.16;82.42;102273.84;6118476;29;20207;-80
2021/01/09 13:45:55;;;;;;;6.00;5.40;;;;;;;1.34;83.11;102297.53;6135054;29;20214;-79
2021/01/09 13:49:02;;;;;;;8.20;5.67;;;;;;;1.31;83.30;102287.06;6123824;29;20571;-79
2021/01/09 13:52:07;;;;;;;7.40;5.53;;;;;;;1.47;83.53;102298.28;6116210;29;20738;-80
2021/01/09 13:55:17;;;;;;;5.83;5.23;;;;;;;1.52;83.10;102288.00;6117973;29;20253;-81
2021/01/09 13:58:25;;;;;;;7.33;5.43;;;;;;;1.47;82.52;102292.91;6127836;29;20197;-79
2021/01/09 14:01:29;;;;;;;7.60;6.03;;;;;;;1.33;81.96;102293.16;6111981;29;20647;-80
2021/01/09 14:04:33;;;;;;;6.03;5.50;;;;;;;1.33;82.08;102288.63;6093698;29;20209;-79
2021/01/09 14:07:38;;;;;;;6.73;5.97;;;;;;;1.16;82.49;102279.22;6115529;29;20220;-80
2021/01/09 14:10:42;;;;;;;6.73;5.97;;;;;;;1.21;83.42;102282.38;6111621;29;20263;-81
2021/01/09 14:13:46;;;;;;;10.33;6.10;;;;;;;1.18;82.37;102282.63;6116309;29;20658;-80
2021/01/09 14:16:59;;;;;;;7.03;5.97;;;;;;;1.08;83.74;102276.28;6118140;29;20669;-80
2021/01/09 14:20:04;;;;;;;9.17;6.13;;;;;;;1.18;83.92;102279.94;6116177;29;20201;-80
2021/01/09 14:23:14;;;;;;;7.03;6.23;;;;;;;1.27;83.45;102281.91;6106940;29;20212;-80
2021/01/09 14:26:18;;;;;;;7.67;6.40;;;;;;;1.22;83.55;102278.72;6124908;29;20255;-80
2021/01/09 14:29:22;;;;;;;6.63;5.77;;;;;;;1.06;84.99;102275.53;6112742;28;20295;-79
2021/01/09 14:32:25;;;;;;;9.77;6.47;;;;;;;0.98;85.62;102256.47;6118798;29;20208;-79
2021/01/09 14:35:29;;;;;;;8.43;6.67;;;;;;;1.21;84.65;102274.31;6124553;29;20203;-80
2021/01/09 14:38:41;;;;;;;8.87;6.20;;;;;;;1.24;84.93;102276.78;6117073;29;20236;-80
2021/01/09 14:41:45;;;;;;;8.43;5.83;;;;;;;0.98;83.12;102248.41;6113950;29;20207;-79
2021/01/09 14:44:49;;;;;;;6.70;5.77;;;;;;;0.96;84.53;102282.63;6094550;29;20205;-79
2021/01/09 14:47:56;;;;;;;7.13;6.20;;;;;;;0.97;84.15;102278.97;6135902;29;20238;-79
2021/01/09 14:51:00;;;;;;;7.67;5.77;;;;;;;0.86;84.67;102260.13;6109328;29;20201;-80
2021/01/09 14:54:05;;;;;;;6.23;5.70;;;;;;;0.80;85.40;102287.47;6116172;29;20250;-77
2021/01/09 14:57:13;;;;;;;8.27;6.13;;;;;;;0.97;84.76;102270.91;6112530;29;20287;-79